createdAt,value
2017-08-22T00:01:00.835Z,13.00
2017-08-22T00:03:34.059Z,12.90
2017-08-22T00:06:01.588Z,12.90
2017-08-22T00:08:29.100Z,12.90
2017-08-22T00:10:56.627Z,12.80
2017-08-22T00:13:24.121Z,12.80
2017-08-22T00:15:51.647Z,12.80
2017-08-22T00:18:19.147Z,12.80
2017-08-22T00:20:47.076Z,12.70
2017-08-22T00:23:14.984Z,12.80
2017-08-22T00:25:43.629Z,12.80
2017-08-22T00:28:11.160Z,12.70
2017-08-22T00:30:38.651Z,12.60
2017-08-22T00:33:06.184Z,12.60
2017-08-22T00:35:33.695Z,12.50
2017-08-22T00:38:01.219Z,12.50
2017-08-22T00:40:28.747Z,12.50
2017-08-22T00:42:56.669Z,12.50
2017-08-22T00:45:24.184Z,12.40
2017-08-22T00:47:51.711Z,12.40
2017-08-22T00:50:19.225Z,12.40
2017-08-22T00:52:47.504Z,12.40
2017-08-22T00:55:14.999Z,12.40
2017-08-22T00:57:43.284Z,12.50
2017-08-22T01:00:10.796Z,12.40
2017-08-22T01:02:38.290Z,12.30
2017-08-22T01:05:05.816Z,12.30
2017-08-22T01:07:33.320Z,12.30
2017-08-22T01:10:00.847Z,12.20
2017-08-22T01:12:28.363Z,12.20
2017-08-22T01:17:25.124Z,12.20
2017-08-22T01:19:52.652Z,12.10
2017-08-22T01:22:20.162Z,12.10
2017-08-22T01:24:47.706Z,12.10
2017-08-22T01:27:15.214Z,12.10
2017-08-22T01:29:42.744Z,12.00
2017-08-22T01:32:10.277Z,12.10
2017-08-22T01:34:37.776Z,12.00
2017-08-22T01:37:06.075Z,12.10
2017-08-22T01:39:33.979Z,12.10
2017-08-22T01:42:01.536Z,12.10
2017-08-22T01:44:29.056Z,12.00
2017-08-22T01:46:56.579Z,12.00
2017-08-22T01:49:25.207Z,11.90
2017-08-22T01:51:53.132Z,11.90
2017-08-22T01:54:21.767Z,11.80
2017-08-22T01:56:50.433Z,11.80
2017-08-22T01:59:17.939Z,11.80
2017-08-22T02:01:45.467Z,11.80
2017-08-22T02:04:12.976Z,11.80
2017-08-22T02:06:40.476Z,11.70
2017-08-22T02:09:07.995Z,11.80
2017-08-22T02:11:36.267Z,11.80
2017-08-22T02:14:03.803Z,11.80
2017-08-22T02:16:32.072Z,11.80
2017-08-22T02:19:00.363Z,11.70
2017-08-22T02:21:27.874Z,11.70
2017-08-22T02:23:55.407Z,11.70
2017-08-22T02:26:23.312Z,11.60
2017-08-22T02:28:50.830Z,11.60
2017-08-22T02:31:19.108Z,11.60
2017-08-22T02:33:46.635Z,11.60
2017-08-22T02:36:14.132Z,11.60
2017-08-22T02:38:41.654Z,11.60
2017-08-22T02:41:09.155Z,11.50
2017-08-22T02:43:36.660Z,11.50
2017-08-22T02:46:04.176Z,11.50
2017-08-22T02:48:32.453Z,11.40
2017-08-22T02:51:00.743Z,11.50
2017-08-22T02:53:28.642Z,11.60
2017-08-22T02:55:56.155Z,11.50
2017-08-22T02:58:23.659Z,11.50
2017-08-22T03:00:51.193Z,11.40
2017-08-22T03:03:18.704Z,11.40
2017-08-22T03:05:46.236Z,11.40
2017-08-22T03:08:13.732Z,11.40
2017-08-22T03:10:41.648Z,11.40
2017-08-22T03:13:09.179Z,11.40
2017-08-22T03:15:36.819Z,11.40
2017-08-22T03:18:04.319Z,11.40
2017-08-22T03:20:31.866Z,11.40
2017-08-22T03:22:59.835Z,11.40
2017-08-22T03:25:27.340Z,11.50
2017-08-22T03:27:54.895Z,11.50
2017-08-22T03:30:22.413Z,11.40
2017-08-22T03:32:49.939Z,11.30
2017-08-22T03:35:17.439Z,11.30
2017-08-22T03:37:44.962Z,11.20
2017-08-22T03:40:12.459Z,11.20
2017-08-22T03:42:40.740Z,11.20
2017-08-22T03:45:08.251Z,11.20
2017-08-22T03:47:35.796Z,11.10
2017-08-22T03:50:04.073Z,11.10
2017-08-22T03:52:31.620Z,11.10
2017-08-22T03:54:59.123Z,11.10
2017-08-22T03:57:26.676Z,11.10
2017-08-22T03:59:54.198Z,11.20
2017-08-22T04:02:21.700Z,11.20
2017-08-22T04:04:50.367Z,11.30
2017-08-22T04:07:17.869Z,11.30
2017-08-22T04:09:45.387Z,11.30
2017-08-22T04:12:13.284Z,11.20
2017-08-22T04:14:40.811Z,11.20
2017-08-22T04:17:08.312Z,11.20
2017-08-22T04:19:35.823Z,11.10
2017-08-22T04:22:03.331Z,11.10
2017-08-22T04:24:31.607Z,11.10
2017-08-22T04:26:59.115Z,11.10
2017-08-22T04:29:26.631Z,11.00
2017-08-22T04:31:54.140Z,11.00
2017-08-22T04:34:21.658Z,11.00
2017-08-22T04:36:50.664Z,11.00
2017-08-22T04:39:19.347Z,11.20
2017-08-22T04:41:46.853Z,11.20
2017-08-22T04:44:15.120Z,11.10
2017-08-22T04:46:42.646Z,11.10
2017-08-22T04:49:10.755Z,11.10
2017-08-22T04:51:38.687Z,11.10
2017-08-22T04:54:06.199Z,11.20
2017-08-22T04:56:33.732Z,11.20
2017-08-22T04:59:01.238Z,11.20
2017-08-22T05:01:28.780Z,11.30
2017-08-22T05:03:56.295Z,11.40
2017-08-22T05:06:24.579Z,11.50
2017-08-22T05:08:52.467Z,11.60
2017-08-22T05:11:19.996Z,11.60
2017-08-22T05:13:47.501Z,11.70
2017-08-22T05:16:15.437Z,11.80
2017-08-22T05:18:43.333Z,11.90
2017-08-22T05:21:10.862Z,12.10
2017-08-22T05:23:38.363Z,12.20
2017-08-22T05:26:05.916Z,12.10
2017-08-22T05:28:34.188Z,12.20
2017-08-22T05:31:01.687Z,12.20
2017-08-22T05:35:58.059Z,12.40
2017-08-22T05:38:25.600Z,12.40
2017-08-22T05:40:53.875Z,12.50
2017-08-22T05:43:21.400Z,12.60
2017-08-22T05:45:49.670Z,12.60
2017-08-22T05:48:17.191Z,12.70
2017-08-22T05:50:44.687Z,12.80
2017-08-22T05:53:12.614Z,12.90
2017-08-22T05:55:40.111Z,13.00
2017-08-22T05:58:07.637Z,13.00
2017-08-22T06:00:35.932Z,13.00
2017-08-22T06:03:03.435Z,13.10
2017-08-22T06:05:32.464Z,13.10
2017-08-22T06:07:59.971Z,13.20
2017-08-22T06:10:28.644Z,13.30
2017-08-22T06:12:57.648Z,13.40
2017-08-22T06:15:25.168Z,13.60
2017-08-22T06:17:52.663Z,13.70
2017-08-22T06:20:20.179Z,13.80
2017-08-22T06:22:47.683Z,13.90
2017-08-22T06:25:44.788Z,14.20
2017-08-22T06:33:10.444Z,17.50
2017-08-22T06:38:07.235Z,19.60
2017-08-22T06:43:04.367Z,20.40
2017-08-22T06:45:31.895Z,20.50
2017-08-22T06:47:59.399Z,20.60
2017-08-22T06:50:26.904Z,20.60
2017-08-22T06:52:55.192Z,20.60
2017-08-22T06:55:22.705Z,20.60
2017-08-22T06:57:51.367Z,20.80
2017-08-22T07:00:18.863Z,21.10
2017-08-22T07:02:46.380Z,21.20
2017-08-22T07:05:14.278Z,21.40
2017-08-22T07:07:42.198Z,21.70
2017-08-22T07:10:09.702Z,22.00
2017-08-22T07:12:37.228Z,22.00
2017-08-22T07:15:04.732Z,21.90
2017-08-22T07:17:32.244Z,21.50
2017-08-22T07:20:00.503Z,21.30
2017-08-22T07:22:28.047Z,21.00
2017-08-22T07:24:55.560Z,20.80
2017-08-22T07:27:23.076Z,20.70
2017-08-22T07:29:50.603Z,20.50
2017-08-22T07:32:18.119Z,20.40
2017-08-22T07:34:46.403Z,20.20
2017-08-22T07:37:13.906Z,20.10
2017-08-22T07:39:41.444Z,20.00
2017-08-22T07:42:08.947Z,20.00
2017-08-22T07:44:36.476Z,19.90
2017-08-22T07:47:03.992Z,20.10
2017-08-22T07:49:32.283Z,20.30
2017-08-22T07:51:59.787Z,20.50
2017-08-22T07:54:27.319Z,20.60
2017-08-22T07:56:55.219Z,20.60
2017-08-22T07:59:22.738Z,20.60
2017-08-22T08:01:50.266Z,20.70
2017-08-22T08:04:17.764Z,20.90
2017-08-22T08:06:45.280Z,21.00
2017-08-22T08:09:12.783Z,21.10
2017-08-22T08:11:40.307Z,21.20
2017-08-22T08:14:08.579Z,21.40
2017-08-22T08:16:36.111Z,21.60
2017-08-22T08:19:03.611Z,21.70
2017-08-22T08:23:59.983Z,21.90
2017-08-22T08:26:28.267Z,22.00
2017-08-22T08:28:55.776Z,22.40
2017-08-22T08:31:23.299Z,22.50
2017-08-22T08:33:50.797Z,22.90
2017-08-22T08:36:18.327Z,23.10
2017-08-22T08:38:46.973Z,23.50
2017-08-22T08:41:14.872Z,24.00
2017-08-22T08:43:42.397Z,24.70
2017-08-22T08:46:09.895Z,24.90
2017-08-22T08:48:37.824Z,24.90
2017-08-22T08:51:05.336Z,24.90
2017-08-22T08:53:32.861Z,25.10
2017-08-22T08:56:00.363Z,25.70
2017-08-22T08:58:27.903Z,25.80
2017-08-22T09:00:55.414Z,26.00
2017-08-22T09:03:23.332Z,26.30
2017-08-22T09:05:50.851Z,26.40
2017-08-22T09:08:18.372Z,26.80
2017-08-22T09:10:47.011Z,27.10
2017-08-22T09:13:14.551Z,27.40
2017-08-22T09:15:43.207Z,27.30
2017-08-22T09:18:10.736Z,27.40
2017-08-22T09:20:38.246Z,27.40
2017-08-22T09:23:05.780Z,27.50
2017-08-22T09:25:33.276Z,27.80
2017-08-22T09:28:00.788Z,27.80
2017-08-22T09:30:29.454Z,27.70
2017-08-22T09:32:56.972Z,27.50
2017-08-22T09:35:24.880Z,27.40
2017-08-22T09:37:52.393Z,27.50
2017-08-22T09:40:19.928Z,27.60
2017-08-22T09:42:47.424Z,27.80
2017-08-22T09:45:16.087Z,27.80
2017-08-22T09:47:43.596Z,27.80
2017-08-22T09:50:11.117Z,27.90
2017-08-22T09:52:39.747Z,28.00
2017-08-22T09:55:07.274Z,28.20
2017-08-22T09:57:34.784Z,28.20
2017-08-22T10:00:02.700Z,28.00
2017-08-22T10:02:30.191Z,27.70
2017-08-22T10:04:58.084Z,28.00
2017-08-22T10:07:25.607Z,28.20
2017-08-22T10:09:53.115Z,28.40
2017-08-22T10:12:20.637Z,28.50
2017-08-22T10:14:48.131Z,28.20
2017-08-22T10:17:15.647Z,27.50
2017-08-22T10:19:43.142Z,27.30
2017-08-22T10:22:11.050Z,26.70
2017-08-22T10:24:38.559Z,26.60
2017-08-22T10:27:06.091Z,26.80
2017-08-22T10:29:33.595Z,27.00
2017-08-22T10:32:01.103Z,27.20
2017-08-22T10:34:28.639Z,27.10
2017-08-22T10:36:56.137Z,27.10
2017-08-22T10:39:24.060Z,27.10
2017-08-22T10:41:51.964Z,27.30
2017-08-22T10:44:20.272Z,27.40
2017-08-22T10:46:50.076Z,27.60
2017-08-22T10:49:17.607Z,27.40
2017-08-22T10:51:45.114Z,26.90
2017-08-22T10:54:14.140Z,26.20
2017-08-22T10:56:42.407Z,25.90
2017-08-22T10:59:09.938Z,25.70
2017-08-22T11:01:37.458Z,25.20
2017-08-22T11:04:05.358Z,24.80
2017-08-22T11:06:33.657Z,24.50
2017-08-22T11:09:01.559Z,24.20
2017-08-22T11:11:29.085Z,23.90
2017-08-22T11:13:56.583Z,23.60
2017-08-22T11:16:24.103Z,23.30
2017-08-22T11:18:51.606Z,23.10
2017-08-22T11:21:19.135Z,23.00
2017-08-22T11:23:46.654Z,22.70
2017-08-22T11:26:14.563Z,22.10
2017-08-22T11:28:42.067Z,22.10
2017-08-22T11:31:10.735Z,22.10
2017-08-22T11:33:38.251Z,22.20
2017-08-22T11:36:05.809Z,22.10
2017-08-22T11:38:34.071Z,22.10
2017-08-22T11:41:01.580Z,22.20
2017-08-22T11:43:29.101Z,22.30
2017-08-22T11:45:56.603Z,22.30
2017-08-22T11:48:24.123Z,22.30
2017-08-22T11:50:51.623Z,22.30
2017-08-22T11:53:20.278Z,22.30
2017-08-22T11:55:47.792Z,22.30
2017-08-22T11:58:16.491Z,22.40
2017-08-22T12:00:43.984Z,22.30
2017-08-22T12:03:13.003Z,22.40
2017-08-22T12:05:40.515Z,22.40
2017-08-22T12:08:08.799Z,22.50
2017-08-22T12:10:36.300Z,22.40
2017-08-22T12:13:03.831Z,22.40
2017-08-22T12:15:31.339Z,22.30
2017-08-22T12:17:58.867Z,22.30
2017-08-22T12:20:26.386Z,22.30
2017-08-22T12:22:53.887Z,22.00
2017-08-22T12:25:21.799Z,21.90
2017-08-22T12:27:49.302Z,21.90
2017-08-22T12:30:16.835Z,21.80
2017-08-22T12:32:45.110Z,21.80
2017-08-22T12:35:12.632Z,21.90
2017-08-22T12:37:40.136Z,21.90
2017-08-22T12:40:07.665Z,21.80
2017-08-22T12:42:35.163Z,21.70
2017-08-22T12:45:02.682Z,21.60
2017-08-22T12:47:31.346Z,21.60
2017-08-22T12:49:58.879Z,21.60
2017-08-22T12:52:26.375Z,21.60
2017-08-22T12:54:53.874Z,21.70
2017-08-22T12:57:21.387Z,21.80
2017-08-22T12:59:48.887Z,21.90
2017-08-22T13:02:16.404Z,21.90
2017-08-22T13:04:43.910Z,21.90
2017-08-22T13:07:11.837Z,22.00
2017-08-22T13:09:40.112Z,22.10
2017-08-22T13:12:07.648Z,22.20
2017-08-22T13:14:35.164Z,22.30
2017-08-22T13:17:02.683Z,22.30
2017-08-22T13:19:30.183Z,22.40
2017-08-22T13:21:57.681Z,22.40
2017-08-22T13:24:25.600Z,22.50
2017-08-22T13:26:53.103Z,22.60
2017-08-22T13:29:21.759Z,22.50
2017-08-22T13:31:50.400Z,22.50
2017-08-22T13:34:17.931Z,22.50
2017-08-22T13:36:45.828Z,22.50
2017-08-22T13:39:13.351Z,22.40
2017-08-22T13:41:40.847Z,22.40
2017-08-22T13:44:08.368Z,22.50
2017-08-22T13:46:35.864Z,22.50
2017-08-22T13:49:03.395Z,22.60
2017-08-22T13:51:31.292Z,22.40
2017-08-22T13:53:58.792Z,22.30
2017-08-22T13:56:26.314Z,22.20
2017-08-22T13:58:53.813Z,22.20
2017-08-22T14:01:21.350Z,22.10
2017-08-22T14:03:49.255Z,22.00
2017-08-22T14:06:16.780Z,22.00
2017-08-22T14:08:44.280Z,22.00
2017-08-22T14:11:11.798Z,22.00
2017-08-22T14:13:39.299Z,22.00
2017-08-22T14:16:06.831Z,22.00
2017-08-22T14:18:34.340Z,21.90
2017-08-22T14:21:02.671Z,21.90
2017-08-22T14:23:30.176Z,21.90
2017-08-22T14:25:57.683Z,21.80
2017-08-22T14:28:25.195Z,21.70
2017-08-22T14:30:53.471Z,21.70
2017-08-22T14:33:21.751Z,21.70
2017-08-22T14:35:49.247Z,21.70
2017-08-22T14:38:17.530Z,21.70
2017-08-22T14:40:45.039Z,21.80
2017-08-22T14:43:13.692Z,21.80
2017-08-22T14:45:41.203Z,21.60
2017-08-22T14:48:09.867Z,21.50
2017-08-22T14:50:37.370Z,21.50
2017-08-22T14:53:04.896Z,21.40
2017-08-22T14:55:32.394Z,21.30
2017-08-22T14:58:00.696Z,21.40
2017-08-22T15:00:28.201Z,21.40
2017-08-22T15:02:55.705Z,21.40
2017-08-22T15:05:23.216Z,21.50
2017-08-22T15:07:50.719Z,21.50
2017-08-22T15:10:19.009Z,21.60
2017-08-22T15:12:46.511Z,21.70
2017-08-22T15:15:14.027Z,21.70
2017-08-22T15:17:41.540Z,21.70
2017-08-22T15:20:09.067Z,21.80
2017-08-22T15:22:36.568Z,21.80
2017-08-22T15:27:32.946Z,21.90
2017-08-22T15:30:00.466Z,21.90
2017-08-22T15:32:28.368Z,21.90
2017-08-22T15:34:55.894Z,21.80
2017-08-22T15:37:23.404Z,21.80
2017-08-22T15:39:50.955Z,21.70
2017-08-22T15:42:18.475Z,21.70
2017-08-22T15:44:45.999Z,21.70
2017-08-22T15:47:13.531Z,21.70
2017-08-22T15:49:41.471Z,21.70
2017-08-22T15:52:08.991Z,21.70
2017-08-22T15:54:36.503Z,21.60
2017-08-22T15:57:04.035Z,21.70
2017-08-22T15:59:31.544Z,21.60
2017-08-22T16:01:59.832Z,21.60
2017-08-22T16:04:27.335Z,21.50
2017-08-22T16:06:54.915Z,21.50
2017-08-22T16:09:22.825Z,21.40
2017-08-22T16:11:50.735Z,21.40
2017-08-22T16:14:18.235Z,21.40
2017-08-22T16:16:45.772Z,21.40
2017-08-22T16:19:13.284Z,21.50
2017-08-22T16:21:40.788Z,21.50
2017-08-22T16:24:08.770Z,21.50
2017-08-22T16:26:36.284Z,21.50
2017-08-22T16:29:04.151Z,21.50
2017-08-22T16:31:31.651Z,21.40
2017-08-22T16:33:59.941Z,21.50
2017-08-22T16:36:27.464Z,21.40
2017-08-22T16:38:54.984Z,21.50
2017-08-22T16:41:22.480Z,21.50
2017-08-22T16:43:50.018Z,21.40
2017-08-22T16:46:17.927Z,21.40
2017-08-22T16:48:45.488Z,21.40
2017-08-22T16:51:13.010Z,21.30
2017-08-22T16:53:40.569Z,21.20
2017-08-22T16:56:08.099Z,21.20
2017-08-22T16:58:35.618Z,21.20
2017-08-22T17:01:03.146Z,21.20
2017-08-22T17:03:30.648Z,21.10
2017-08-22T17:05:58.176Z,21.00
2017-08-22T17:08:25.695Z,20.90
2017-08-22T17:10:53.224Z,20.80
2017-08-22T17:13:20.737Z,20.80
2017-08-22T17:15:49.027Z,20.80
2017-08-22T17:18:16.555Z,20.70
2017-08-22T17:20:44.075Z,20.70
2017-08-22T17:23:11.591Z,20.60
2017-08-22T17:25:39.124Z,20.60
2017-08-22T17:28:06.624Z,20.50
2017-08-22T17:30:35.272Z,20.50
2017-08-22T17:33:02.991Z,20.40
2017-08-22T17:35:32.015Z,20.40
2017-08-22T17:37:59.527Z,20.30
2017-08-22T17:40:27.423Z,20.30
2017-08-22T17:42:54.951Z,20.30
2017-08-22T17:45:22.466Z,20.20
2017-08-22T17:47:50.025Z,20.20
2017-08-22T17:50:17.524Z,20.20
2017-08-22T17:52:45.449Z,20.10
2017-08-22T17:55:12.948Z,20.10
2017-08-22T17:57:40.463Z,20.10
2017-08-22T18:00:07.976Z,20.00
2017-08-22T18:02:35.891Z,20.00
2017-08-22T18:05:04.163Z,19.90
2017-08-22T18:10:01.337Z,19.80
2017-08-22T18:12:29.976Z,19.80
2017-08-22T18:14:57.501Z,19.70
2017-08-22T18:17:25.777Z,19.70
2017-08-22T18:19:53.307Z,19.60
2017-08-22T18:22:20.819Z,19.50
2017-08-22T18:24:48.516Z,19.40
2017-08-22T18:27:16.792Z,19.30
2017-08-22T18:29:44.319Z,19.20
2017-08-22T18:32:11.968Z,19.10
2017-08-22T18:34:39.885Z,19.00
2017-08-22T18:37:07.394Z,19.00
2017-08-22T18:39:35.676Z,18.90
2017-08-22T18:42:03.192Z,18.90
2017-08-22T18:44:31.547Z,18.80
2017-08-22T18:46:59.819Z,18.80
2017-08-22T18:49:28.111Z,18.70
2017-08-22T18:51:55.603Z,18.70
2017-08-22T18:54:23.500Z,18.60
2017-08-22T18:56:51.798Z,18.70
2017-08-22T18:59:19.304Z,18.60
2017-08-22T19:01:47.218Z,18.50
2017-08-22T19:04:14.711Z,18.50
2017-08-22T19:06:42.319Z,18.50
2017-08-22T19:09:09.815Z,18.40
2017-08-22T19:11:38.106Z,18.40
2017-08-22T19:14:06.371Z,18.40
2017-08-22T19:16:34.280Z,18.30
2017-08-22T19:19:01.778Z,18.30
2017-08-22T19:21:29.297Z,18.30
2017-08-22T19:23:56.808Z,18.30
2017-08-22T19:26:25.087Z,18.30
2017-08-22T19:28:52.610Z,18.20
2017-08-22T19:31:20.127Z,18.20
2017-08-22T19:33:47.623Z,18.10
2017-08-22T19:36:15.130Z,18.00
2017-08-22T19:38:42.671Z,18.00
2017-08-22T19:41:10.931Z,17.90
2017-08-22T19:43:38.463Z,17.90
2017-08-22T19:46:05.970Z,17.80
2017-08-22T19:48:33.496Z,17.80
2017-08-22T19:51:01.011Z,17.70
2017-08-22T19:53:28.572Z,17.70
2017-08-22T19:55:56.487Z,17.60
2017-08-22T19:58:23.999Z,17.60
2017-08-22T20:00:51.503Z,17.50
2017-08-22T20:03:19.031Z,17.50
2017-08-22T20:05:46.931Z,17.40
2017-08-22T20:08:14.443Z,17.30
2017-08-22T20:13:11.579Z,17.30
2017-08-22T20:15:39.099Z,17.30
2017-08-22T20:18:06.715Z,17.20
2017-08-22T20:20:34.236Z,17.10
2017-08-22T20:23:02.536Z,17.10
2017-08-22T20:25:30.077Z,17.00
2017-08-22T20:27:58.335Z,17.00
2017-08-22T20:30:25.847Z,17.00
2017-08-22T20:32:53.347Z,16.90
2017-08-22T20:35:20.859Z,16.90
2017-08-22T20:37:48.367Z,16.80
2017-08-22T20:40:16.043Z,16.80
2017-08-22T20:42:44.755Z,16.80
2017-08-22T20:45:13.399Z,16.80
2017-08-22T20:47:41.402Z,16.80
2017-08-22T20:50:08.940Z,16.70
2017-08-22T20:52:36.460Z,16.60
2017-08-22T20:55:03.955Z,16.50
2017-08-22T20:57:31.471Z,16.50
2017-08-22T20:59:58.979Z,16.50
2017-08-22T21:02:26.496Z,16.40
2017-08-22T21:04:53.996Z,16.40
2017-08-22T21:07:21.539Z,16.40
2017-08-22T21:09:49.039Z,16.30
2017-08-22T21:12:17.319Z,16.30
2017-08-22T21:14:45.369Z,16.30
2017-08-22T21:17:13.699Z,16.30
2017-08-22T21:19:41.195Z,16.20
2017-08-22T21:22:08.688Z,16.30
2017-08-22T21:24:36.599Z,16.20
2017-08-22T21:27:04.855Z,16.30
2017-08-22T21:29:32.387Z,16.30
2017-08-22T21:31:59.902Z,16.20
2017-08-22T21:34:27.427Z,16.20
2017-08-22T21:36:54.932Z,16.10
2017-08-22T21:39:23.220Z,16.10
2017-08-22T21:41:50.719Z,16.20
2017-08-22T21:44:18.244Z,16.10
2017-08-22T21:46:46.506Z,16.10
2017-08-22T21:49:15.531Z,16.00
2017-08-22T21:51:43.044Z,15.90
2017-08-22T21:54:10.568Z,15.90
2017-08-22T21:59:08.043Z,16.00
2017-08-22T22:01:35.579Z,16.00
2017-08-22T22:04:04.222Z,15.90
2017-08-22T22:06:32.511Z,15.90
2017-08-22T22:09:00.775Z,15.90
2017-08-22T22:11:28.683Z,15.90
2017-08-22T22:13:56.951Z,15.90
2017-08-22T22:16:25.607Z,15.80
2017-08-22T22:18:53.103Z,15.80
2017-08-22T22:21:20.621Z,15.70
2017-08-22T22:23:48.143Z,15.70
2017-08-22T22:26:15.676Z,15.60
2017-08-22T22:28:43.194Z,15.50
2017-08-22T22:31:10.724Z,15.50
2017-08-22T22:33:38.223Z,15.40
2017-08-22T22:36:07.240Z,15.30
2017-08-22T22:38:34.751Z,15.30
2017-08-22T22:41:03.395Z,15.40
2017-08-22T22:43:30.919Z,15.40
2017-08-22T22:45:58.815Z,15.30
2017-08-22T22:48:26.337Z,15.20
2017-08-22T22:50:53.838Z,15.20
2017-08-22T22:55:50.207Z,15.00
2017-08-22T22:58:18.125Z,15.10
2017-08-22T23:00:45.774Z,15.10
2017-08-22T23:03:13.299Z,15.00
2017-08-22T23:05:41.572Z,15.00
2017-08-22T23:08:09.108Z,14.90
2017-08-22T23:10:36.626Z,15.00
2017-08-22T23:13:04.532Z,15.00
2017-08-22T23:15:32.087Z,15.00
2017-08-22T23:18:00.735Z,14.90
2017-08-22T23:20:28.267Z,14.90
2017-08-22T23:22:55.927Z,14.90
2017-08-22T23:25:23.596Z,14.80
2017-08-22T23:27:51.864Z,14.80
2017-08-22T23:30:19.403Z,14.80
2017-08-22T23:32:46.913Z,14.80
2017-08-22T23:35:14.439Z,14.80
2017-08-22T23:37:41.943Z,14.70
2017-08-22T23:40:09.459Z,14.70
2017-08-22T23:42:42.526Z,14.70
2017-08-22T23:45:10.052Z,14.80
2017-08-22T23:47:38.691Z,14.80
2017-08-22T23:50:06.223Z,14.80
2017-08-22T23:52:33.723Z,14.80
2017-08-22T23:55:02.732Z,14.90
2017-08-22T23:57:31.764Z,14.90
2017-08-22T23:59:59.263Z,14.80
